sensor_id;sensor_type;location;lat;lon;timestamp;P1;durP1;ratioP1;P2;durP2;ratioP2
20931;SDS011;10625;49.054;9.348;2022-09-12T05:00:22;36.13;;;17.00;;
20931;SDS011;10625;49.054;9.348;2022-09-12T05:02:49;30.40;;;15.17;;
20931;SDS011;10625;49.054;9.348;2022-09-12T05:05:17;31.70;;;16.57;;
20931;SDS011;10625;49.054;9.348;2022-09-12T05:07:44;39.67;;;16.93;;
20931;SDS011;10625;49.054;9.348;2022-09-12T05:10:11;36.53;;;15.93;;
20931;SDS011;10625;49.054;9.348;2022-09-12T05:12:38;37.97;;;16.20;;
20931;SDS011;10625;49.054;9.348;2022-09-12T05:15:06;15.03;;;9.87;;
20931;SDS011;10625;49.054;9.348;2022-09-12T05:17:33;36.43;;;16.30;;
20931;SDS011;10625;49.054;9.348;2022-09-12T05:20:01;32.10;;;15.77;;
20931;SDS011;10625;49.054;9.348;2022-09-12T05:22:28;36.47;;;16.80;;
20931;SDS011;10625;49.054;9.348;2022-09-12T05:24:56;36.57;;;17.50;;
20931;SDS011;10625;49.054;9.348;2022-09-12T05:27:23;31.53;;;16.27;;
20931;SDS011;10625;49.054;9.348;2022-09-12T05:29:50;34.83;;;16.90;;
20931;SDS011;10625;49.054;9.348;2022-09-12T05:32:18;36.07;;;18.27;;
20931;SDS011;10625;49.054;9.348;2022-09-12T05:34:45;33.83;;;16.90;;
20931;SDS011;10625;49.054;9.348;2022-09-12T05:37:13;35.67;;;18.13;;
20931;SDS011;10625;49.054;9.348;2022-09-12T05:39:40;31.63;;;16.00;;
20931;SDS011;10625;49.054;9.348;2022-09-12T05:42:07;40.07;;;16.67;;
20931;SDS011;10625;49.054;9.348;2022-09-12T05:44:34;34.47;;;17.33;;
20931;SDS011;10625;49.054;9.348;2022-09-12T05:47:02;33.27;;;16.70;;
20931;SDS011;10625;49.054;9.348;2022-09-12T05:49:29;30.90;;;14.43;;
20931;SDS011;10625;49.054;9.348;2022-09-12T05:51:56;35.97;;;17.67;;
20931;SDS011;10625;49.054;9.348;2022-09-12T05:54:23;33.97;;;17.17;;
20931;SDS011;10625;49.054;9.348;2022-09-12T05:56:52;39.50;;;20.30;;
20931;SDS011;10625;49.054;9.348;2022-09-12T05:59:20;29.27;;;16.50;;
20931;SDS011;10625;49.054;9.348;2022-09-12T06:01:49;25.20;;;15.27;;
20931;SDS011;10625;49.054;9.348;2022-09-12T06:04:17;19.63;;;11.43;;
20931;SDS011;10625;49.054;9.348;2022-09-12T06:06:44;15.43;;;9.83;;
20931;SDS011;10625;49.054;9.348;2022-09-12T06:09:12;14.13;;;9.40;;
20931;SDS011;10625;49.054;9.348;2022-09-12T06:11:40;13.23;;;8.93;;
20931;SDS011;10625;49.054;9.348;2022-09-12T06:14:08;13.20;;;10.00;;
20931;SDS011;10625;49.054;9.348;2022-09-12T06:16:36;16.23;;;11.07;;
20931;SDS011;10625;49.054;9.348;2022-09-12T06:19:11;20.63;;;12.20;;
20931;SDS011;10625;49.054;9.348;2022-09-12T06:21:32;23.90;;;13.33;;
20931;SDS011;10625;49.054;9.348;2022-09-12T06:24:03;25.07;;;13.50;;
20931;SDS011;10625;49.054;9.348;2022-09-12T06:26:30;22.93;;;12.93;;
20931;SDS011;10625;49.054;9.348;2022-09-12T06:28:58;24.23;;;13.80;;
20931;SDS011;10625;49.054;9.348;2022-09-12T06:31:27;23.77;;;14.53;;
20931;SDS011;10625;49.054;9.348;2022-09-12T06:33:55;22.33;;;14.40;;
20931;SDS011;10625;49.054;9.348;2022-09-12T06:36:24;19.83;;;13.43;;
20931;SDS011;10625;49.054;9.348;2022-09-12T06:38:52;20.43;;;13.00;;
20931;SDS011;10625;49.054;9.348;2022-09-12T06:41:20;20.20;;;12.90;;
20931;SDS011;10625;49.054;9.348;2022-09-12T06:43:47;21.90;;;13.43;;
20931;SDS011;10625;49.054;9.348;2022-09-12T06:46:15;14.63;;;11.57;;
20931;SDS011;10625;49.054;9.348;2022-09-12T06:48:42;6.90;;;6.03;;
20931;SDS011;10625;49.054;9.348;2022-09-12T06:51:10;5.63;;;5.10;;
20931;SDS011;10625;49.054;9.348;2022-09-12T06:53:38;5.67;;;5.13;;
20931;SDS011;10625;49.054;9.348;2022-09-12T06:56:07;5.50;;;5.00;;
20931;SDS011;10625;49.054;9.348;2022-09-12T06:58:35;5.10;;;4.47;;
20931;SDS011;10625;49.054;9.348;2022-09-12T07:01:03;4.83;;;4.30;;
20931;SDS011;10625;49.054;9.348;2022-09-12T07:03:30;5.00;;;4.60;;
20931;SDS011;10625;49.054;9.348;2022-09-12T07:06:06;4.60;;;4.20;;
20931;SDS011;10625;49.054;9.348;2022-09-12T07:08:30;5.70;;;4.73;;
20931;SDS011;10625;49.054;9.348;2022-09-12T07:10:58;4.83;;;4.33;;
20931;SDS011;10625;49.054;9.348;2022-09-12T07:13:26;4.57;;;3.97;;
20931;SDS011;10625;49.054;9.348;2022-09-12T07:15:53;4.73;;;4.17;;
20931;SDS011;10625;49.054;9.348;2022-09-12T07:18:20;4.90;;;4.40;;
20931;SDS011;10625;49.054;9.348;2022-09-12T07:20:48;4.80;;;4.40;;
20931;SDS011;10625;49.054;9.348;2022-09-12T07:23:16;4.83;;;4.43;;
20931;SDS011;10625;49.054;9.348;2022-09-12T07:25:43;5.53;;;4.00;;
20931;SDS011;10625;49.054;9.348;2022-09-12T07:28:12;4.57;;;4.17;;
20931;SDS011;10625;49.054;9.348;2022-09-12T07:30:40;4.67;;;4.27;;
20931;SDS011;10625;49.054;9.348;2022-09-12T07:33:07;5.00;;;4.57;;
20931;SDS011;10625;49.054;9.348;2022-09-12T07:35:34;5.13;;;4.63;;
20931;SDS011;10625;49.054;9.348;2022-09-12T07:38:02;5.33;;;4.83;;
20931;SDS011;10625;49.054;9.348;2022-09-12T07:40:29;4.93;;;4.50;;
20931;SDS011;10625;49.054;9.348;2022-09-12T07:42:56;6.33;;;4.93;;
20931;SDS011;10625;49.054;9.348;2022-09-12T07:45:24;5.27;;;4.77;;
20931;SDS011;10625;49.054;9.348;2022-09-12T07:47:52;5.50;;;5.00;;
20931;SDS011;10625;49.054;9.348;2022-09-12T07:50:20;5.17;;;4.70;;
20931;SDS011;10625;49.054;9.348;2022-09-12T07:52:47;6.80;;;5.20;;
20931;SDS011;10625;49.054;9.348;2022-09-12T07:55:15;6.23;;;5.63;;
20931;SDS011;10625;49.054;9.348;2022-09-12T07:57:42;5.87;;;5.37;;
20931;SDS011;10625;49.054;9.348;2022-09-12T08:00:10;5.33;;;4.83;;
20931;SDS011;10625;49.054;9.348;2022-09-12T08:02:37;5.50;;;5.00;;
20931;SDS011;10625;49.054;9.348;2022-09-12T08:05:05;6.00;;;5.40;;
20931;SDS011;10625;49.054;9.348;2022-09-12T08:08:05;7.07;;;5.57;;
20931;SDS011;10625;49.054;9.348;2022-09-12T08:10:32;6.23;;;5.63;;
20931;SDS011;10625;49.054;9.348;2022-09-12T08:13:00;5.73;;;5.13;;
20931;SDS011;10625;49.054;9.348;2022-09-12T08:15:28;6.60;;;5.60;;
20931;SDS011;10625;49.054;9.348;2022-09-12T08:17:56;7.03;;;5.80;;
20931;SDS011;10625;49.054;9.348;2022-09-12T08:20:23;7.50;;;6.20;;
20931;SDS011;10625;49.054;9.348;2022-09-12T08:22:51;7.00;;;6.27;;
20931;SDS011;10625;49.054;9.348;2022-09-12T08:25:18;8.93;;;8.03;;
20931;SDS011;10625;49.054;9.348;2022-09-12T08:27:45;8.43;;;7.57;;
20931;SDS011;10625;49.054;9.348;2022-09-12T08:30:13;8.40;;;7.47;;
20931;SDS011;10625;49.054;9.348;2022-09-12T08:32:40;10.77;;;7.30;;
20931;SDS011;10625;49.054;9.348;2022-09-12T08:35:08;10.13;;;8.03;;
20931;SDS011;10625;49.054;9.348;2022-09-12T08:37:35;8.60;;;7.17;;
20931;SDS011;10625;49.054;9.348;2022-09-12T08:40:02;7.70;;;6.90;;
20931;SDS011;10625;49.054;9.348;2022-09-12T08:42:44;8.43;;;7.10;;
20931;SDS011;10625;49.054;9.348;2022-09-12T08:47:39;6.63;;;5.93;;
20931;SDS011;10625;49.054;9.348;2022-09-12T08:52:40;6.67;;;5.57;;
20931;SDS011;10625;49.054;9.348;2022-09-12T08:55:12;7.60;;;5.20;;
20931;SDS011;10625;49.054;9.348;2022-09-12T08:57:35;5.63;;;4.93;;
20931;SDS011;10625;49.054;9.348;2022-09-12T09:00:03;5.20;;;4.70;;
20931;SDS011;10625;49.054;9.348;2022-09-12T09:02:37;4.73;;;4.33;;
20931;SDS011;10625;49.054;9.348;2022-09-12T09:17:59;3.53;;;3.23;;
20931;SDS011;10625;49.054;9.348;2022-09-12T09:20:31;3.70;;;3.20;;
20931;SDS011;10625;49.054;9.348;2022-09-12T09:23:01;4.00;;;2.53;;
20931;SDS011;10625;49.054;9.348;2022-09-12T09:28:15;3.33;;;2.60;;
20931;SDS011;10625;49.054;9.348;2022-09-12T09:30:42;4.10;;;3.00;;
20931;SDS011;10625;49.054;9.348;2022-09-12T09:33:16;5.40;;;2.83;;
20931;SDS011;10625;49.054;9.348;2022-09-12T09:35:42;3.00;;;2.80;;
20931;SDS011;10625;49.054;9.348;2022-09-12T09:38:21;3.70;;;2.73;;
20931;SDS011;10625;49.054;9.348;2022-09-12T09:43:31;3.80;;;2.77;;
20931;SDS011;10625;49.054;9.348;2022-09-12T09:45:58;2.50;;;2.30;;
20931;SDS011;10625;49.054;9.348;2022-09-12T09:48:33;2.47;;;2.27;;
20931;SDS011;10625;49.054;9.348;2022-09-12T09:51:01;3.37;;;2.60;;
20931;SDS011;10625;49.054;9.348;2022-09-12T09:56:27;2.30;;;2.10;;
20931;SDS011;10625;49.054;9.348;2022-09-12T09:58:55;2.90;;;2.70;;
20931;SDS011;10625;49.054;9.348;2022-09-12T10:01:29;2.43;;;2.23;;
20931;SDS011;10625;49.054;9.348;2022-09-12T10:03:53;2.53;;;2.33;;
20931;SDS011;10625;49.054;9.348;2022-09-12T10:09:02;2.47;;;2.20;;
20931;SDS011;10625;49.054;9.348;2022-09-12T10:11:21;2.20;;;2.10;;
20931;SDS011;10625;49.054;9.348;2022-09-12T10:16:25;2.50;;;2.30;;
20931;SDS011;10625;49.054;9.348;2022-09-12T10:18:58;3.00;;;2.73;;
20931;SDS011;10625;49.054;9.348;2022-09-12T10:21:29;4.10;;;2.37;;
20931;SDS011;10625;49.054;9.348;2022-09-12T10:24:02;2.70;;;2.10;;
20931;SDS011;10625;49.054;9.348;2022-09-12T10:26:26;2.70;;;2.50;;
20931;SDS011;10625;49.054;9.348;2022-09-12T10:28:55;2.50;;;2.20;;
20931;SDS011;10625;49.054;9.348;2022-09-12T10:31:23;2.93;;;2.73;;
20931;SDS011;10625;49.054;9.348;2022-09-12T10:33:53;4.00;;;2.80;;
20931;SDS011;10625;49.054;9.348;2022-09-12T10:36:21;2.50;;;2.30;;
20931;SDS011;10625;49.054;9.348;2022-09-12T10:38:53;4.20;;;2.70;;
20931;SDS011;10625;49.054;9.348;2022-09-12T10:41:21;3.70;;;2.70;;
20931;SDS011;10625;49.054;9.348;2022-09-12T10:43:49;2.37;;;2.23;;
20931;SDS011;10625;49.054;9.348;2022-09-12T10:48:46;3.00;;;2.70;;
20931;SDS011;10625;49.054;9.348;2022-09-12T10:53:52;2.50;;;2.30;;
20931;SDS011;10625;49.054;9.348;2022-09-12T10:56:24;2.93;;;2.50;;
20931;SDS011;10625;49.054;9.348;2022-09-12T11:01:39;2.77;;;2.57;;
20931;SDS011;10625;49.054;9.348;2022-09-12T11:04:15;2.70;;;2.50;;
20931;SDS011;10625;49.054;9.348;2022-09-12T11:06:42;2.50;;;2.30;;
20931;SDS011;10625;49.054;9.348;2022-09-12T11:09:09;2.03;;;1.93;;
20931;SDS011;10625;49.054;9.348;2022-09-12T11:11:39;2.20;;;2.00;;
20931;SDS011;10625;49.054;9.348;2022-09-12T11:14:14;2.70;;;2.03;;
20931;SDS011;10625;49.054;9.348;2022-09-12T11:16:45;2.20;;;2.10;;
20931;SDS011;10625;49.054;9.348;2022-09-12T11:19:30;2.53;;;2.00;;
20931;SDS011;10625;49.054;9.348;2022-09-12T11:21:58;2.30;;;2.10;;
20931;SDS011;10625;49.054;9.348;2022-09-12T11:29:58;2.30;;;2.10;;
20931;SDS011;10625;49.054;9.348;2022-09-12T11:40:27;1.70;;;1.60;;
20931;SDS011;10625;49.054;9.348;2022-09-12T11:42:57;2.30;;;1.80;;
20931;SDS011;10625;49.054;9.348;2022-09-12T11:45:27;2.93;;;1.77;;
20931;SDS011;10625;49.054;9.348;2022-09-12T11:47:55;2.40;;;1.60;;
20931;SDS011;10625;49.054;9.348;2022-09-12T11:50:27;2.60;;;1.37;;
20931;SDS011;10625;49.054;9.348;2022-09-12T11:52:56;1.80;;;1.60;;
20931;SDS011;10625;49.054;9.348;2022-09-12T11:55:27;1.40;;;1.30;;
20931;SDS011;10625;49.054;9.348;2022-09-12T11:57:56;1.10;;;1.00;;
20931;SDS011;10625;49.054;9.348;2022-09-12T12:00:35;1.57;;;1.47;;
20931;SDS011;10625;49.054;9.348;2022-09-12T12:03:14;2.43;;;1.60;;
20931;SDS011;10625;49.054;9.348;2022-09-12T12:05:44;2.80;;;1.50;;
20931;SDS011;10625;49.054;9.348;2022-09-12T12:08:12;2.43;;;1.50;;
20931;SDS011;10625;49.054;9.348;2022-09-12T12:10:40;1.60;;;1.20;;
20931;SDS011;10625;49.054;9.348;2022-09-12T12:15:47;1.10;;;1.00;;
20931;SDS011;10625;49.054;9.348;2022-09-12T12:18:16;1.10;;;1.00;;
20931;SDS011;10625;49.054;9.348;2022-09-12T12:20:43;0.80;;;0.80;;
20931;SDS011;10625;49.054;9.348;2022-09-12T12:25:55;3.80;;;1.30;;
20931;SDS011;10625;49.054;9.348;2022-09-12T12:31:11;1.20;;;1.10;;
20931;SDS011;10625;49.054;9.348;2022-09-12T12:36:09;1.40;;;1.30;;
20931;SDS011;10625;49.054;9.348;2022-09-12T12:38:37;1.10;;;1.00;;
20931;SDS011;10625;49.054;9.348;2022-09-12T12:43:47;1.60;;;1.17;;
20931;SDS011;10625;49.054;9.348;2022-09-12T12:46:15;1.10;;;1.00;;
20931;SDS011;10625;49.054;9.348;2022-09-12T12:51:59;1.40;;;1.30;;
20931;SDS011;10625;49.054;9.348;2022-09-12T12:53:45;2.00;;;1.40;;
20931;SDS011;10625;49.054;9.348;2022-09-12T12:58:58;1.47;;;1.13;;
20931;SDS011;10625;49.054;9.348;2022-09-12T13:01:25;2.00;;;1.40;;
20931;SDS011;10625;49.054;9.348;2022-09-12T13:04:02;1.80;;;1.10;;
20931;SDS011;10625;49.054;9.348;2022-09-12T13:06:35;2.10;;;1.30;;
20931;SDS011;10625;49.054;9.348;2022-09-12T13:09:22;1.40;;;1.30;;
20931;SDS011;10625;49.054;9.348;2022-09-12T13:11:59;1.33;;;1.10;;
20931;SDS011;10625;49.054;9.348;2022-09-12T13:14:37;0.90;;;0.90;;
20931;SDS011;10625;49.054;9.348;2022-09-12T13:17:04;1.20;;;1.10;;
20931;SDS011;10625;49.054;9.348;2022-09-12T13:19:34;1.43;;;1.10;;
20931;SDS011;10625;49.054;9.348;2022-09-12T13:22:05;2.13;;;1.00;;
20931;SDS011;10625;49.054;9.348;2022-09-12T13:24:33;1.63;;;0.80;;
20931;SDS011;10625;49.054;9.348;2022-09-12T13:27:00;1.80;;;1.30;;
20931;SDS011;10625;49.054;9.348;2022-09-12T13:29:28;1.87;;;1.20;;
20931;SDS011;10625;49.054;9.348;2022-09-12T13:31:55;1.43;;;1.10;;
20931;SDS011;10625;49.054;9.348;2022-09-12T13:34:25;1.30;;;1.20;;
20931;SDS011;10625;49.054;9.348;2022-09-12T13:44:36;1.77;;;1.20;;
20931;SDS011;10625;49.054;9.348;2022-09-12T13:47:01;1.90;;;1.50;;
20931;SDS011;10625;49.054;9.348;2022-09-12T13:49:32;1.63;;;1.27;;
20931;SDS011;10625;49.054;9.348;2022-09-12T13:52:03;1.37;;;1.27;;
20931;SDS011;10625;49.054;9.348;2022-09-12T13:54:32;1.73;;;1.33;;
20931;SDS011;10625;49.054;9.348;2022-09-12T13:57:00;0.97;;;0.93;;
20931;SDS011;10625;49.054;9.348;2022-09-12T13:59:27;1.37;;;1.20;;
20931;SDS011;10625;49.054;9.348;2022-09-12T14:01:54;2.30;;;1.10;;
20931;SDS011;10625;49.054;9.348;2022-09-12T14:04:22;1.23;;;1.13;;
20931;SDS011;10625;49.054;9.348;2022-09-12T14:07:15;1.57;;;1.30;;
20931;SDS011;10625;49.054;9.348;2022-09-12T14:09:45;1.90;;;1.73;;
20931;SDS011;10625;49.054;9.348;2022-09-12T14:12:16;1.80;;;1.70;;
20931;SDS011;10625;49.054;9.348;2022-09-12T14:14:45;1.70;;;1.60;;
20931;SDS011;10625;49.054;9.348;2022-09-12T14:17:15;2.40;;;1.27;;
20931;SDS011;10625;49.054;9.348;2022-09-12T14:19:43;1.60;;;1.50;;
20931;SDS011;10625;49.054;9.348;2022-09-12T14:22:11;3.10;;;1.50;;
20931;SDS011;10625;49.054;9.348;2022-09-12T14:24:48;1.40;;;1.30;;
20931;SDS011;10625;49.054;9.348;2022-09-12T14:27:22;2.37;;;1.50;;
20931;SDS011;10625;49.054;9.348;2022-09-12T14:29:46;1.60;;;1.50;;
20931;SDS011;10625;49.054;9.348;2022-09-12T14:32:31;3.60;;;1.40;;
20931;SDS011;10625;49.054;9.348;2022-09-12T14:37:30;1.60;;;1.50;;
20931;SDS011;10625;49.054;9.348;2022-09-12T14:39:57;1.77;;;1.50;;
20931;SDS011;10625;49.054;9.348;2022-09-12T14:42:26;1.47;;;1.37;;
20931;SDS011;10625;49.054;9.348;2022-09-12T14:44:55;1.30;;;1.20;;
20931;SDS011;10625;49.054;9.348;2022-09-12T14:47:24;2.90;;;1.50;;
20931;SDS011;10625;49.054;9.348;2022-09-12T14:49:52;1.50;;;1.40;;
20931;SDS011;10625;49.054;9.348;2022-09-12T14:52:22;1.40;;;1.30;;
20931;SDS011;10625;49.054;9.348;2022-09-12T14:54:59;2.63;;;1.47;;
20931;SDS011;10625;49.054;9.348;2022-09-12T14:57:31;1.30;;;1.20;;
20931;SDS011;10625;49.054;9.348;2022-09-12T15:02:42;1.60;;;1.50;;
20931;SDS011;10625;49.054;9.348;2022-09-12T15:15:42;1.80;;;1.70;;
20931;SDS011;10625;49.054;9.348;2022-09-12T15:18:10;2.37;;;2.17;;
20931;SDS011;10625;49.054;9.348;2022-09-12T15:20:38;2.27;;;2.07;;
20931;SDS011;10625;49.054;9.348;2022-09-12T15:23:06;1.70;;;1.30;;
20931;SDS011;10625;49.054;9.348;2022-09-12T15:25:34;1.10;;;1.10;;
20931;SDS011;10625;49.054;9.348;2022-09-12T15:28:04;1.00;;;0.90;;
20931;SDS011;10625;49.054;9.348;2022-09-12T15:30:30;1.30;;;1.20;;
20931;SDS011;10625;49.054;9.348;2022-09-12T15:32:58;1.77;;;1.20;;
20931;SDS011;10625;49.054;9.348;2022-09-12T15:35:31;1.23;;;1.13;;
20931;SDS011;10625;49.054;9.348;2022-09-12T15:37:54;1.20;;;1.10;;
20931;SDS011;10625;49.054;9.348;2022-09-12T15:40:21;1.40;;;1.30;;
20931;SDS011;10625;49.054;9.348;2022-09-12T15:42:48;1.20;;;1.10;;
20931;SDS011;10625;49.054;9.348;2022-09-12T15:45:21;1.50;;;1.33;;
20931;SDS011;10625;49.054;9.348;2022-09-12T15:47:47;1.57;;;1.13;;
20931;SDS011;10625;49.054;9.348;2022-09-12T15:50:14;2.30;;;1.40;;
20931;SDS011;10625;49.054;9.348;2022-09-12T15:52:42;3.10;;;1.20;;
20931;SDS011;10625;49.054;9.348;2022-09-12T15:55:15;1.23;;;1.13;;
20931;SDS011;10625;49.054;9.348;2022-09-12T15:57:38;2.13;;;1.20;;
20931;SDS011;10625;49.054;9.348;2022-09-12T16:00:06;1.30;;;1.20;;
20931;SDS011;10625;49.054;9.348;2022-09-12T16:02:33;1.40;;;1.30;;
20931;SDS011;10625;49.054;9.348;2022-09-12T16:05:00;2.20;;;1.43;;
20931;SDS011;10625;49.054;9.348;2022-09-12T16:07:27;2.03;;;1.77;;
20931;SDS011;10625;49.054;9.348;2022-09-12T16:09:55;1.87;;;1.60;;
20931;SDS011;10625;49.054;9.348;2022-09-12T16:12:22;1.40;;;1.30;;
20931;SDS011;10625;49.054;9.348;2022-09-12T16:14:49;2.20;;;1.47;;
20931;SDS011;10625;49.054;9.348;2022-09-12T16:17:17;2.37;;;1.70;;
20931;SDS011;10625;49.054;9.348;2022-09-12T16:19:44;1.47;;;1.37;;
20931;SDS011;10625;49.054;9.348;2022-09-12T16:22:11;1.27;;;1.17;;
20931;SDS011;10625;49.054;9.348;2022-09-12T16:24:39;3.10;;;1.80;;
20931;SDS011;10625;49.054;9.348;2022-09-12T16:27:06;2.40;;;1.53;;
20931;SDS011;10625;49.054;9.348;2022-09-12T16:29:33;2.23;;;1.60;;
20931;SDS011;10625;49.054;9.348;2022-09-12T16:32:00;2.60;;;1.93;;
20931;SDS011;10625;49.054;9.348;2022-09-12T16:34:28;1.60;;;1.50;;
20931;SDS011;10625;49.054;9.348;2022-09-12T16:36:55;1.80;;;1.70;;
20931;SDS011;10625;49.054;9.348;2022-09-12T16:39:22;2.17;;;1.97;;
20931;SDS011;10625;49.054;9.348;2022-09-12T16:41:49;1.60;;;1.50;;
20931;SDS011;10625;49.054;9.348;2022-09-12T16:44:17;2.23;;;1.80;;
20931;SDS011;10625;49.054;9.348;2022-09-12T16:46:44;1.80;;;1.70;;
20931;SDS011;10625;49.054;9.348;2022-09-12T16:49:11;2.47;;;2.10;;
20931;SDS011;10625;49.054;9.348;2022-09-12T16:51:38;2.17;;;1.97;;
20931;SDS011;10625;49.054;9.348;2022-09-12T16:54:07;2.00;;;1.80;;
20931;SDS011;10625;49.054;9.348;2022-09-12T16:56:35;2.30;;;2.10;;
20931;SDS011;10625;49.054;9.348;2022-09-12T16:59:02;2.00;;;1.80;;
20931;SDS011;10625;49.054;9.348;2022-09-12T17:01:30;2.23;;;2.07;;
20931;SDS011;10625;49.054;9.348;2022-09-12T17:03:58;3.70;;;2.20;;
20931;SDS011;10625;49.054;9.348;2022-09-12T17:06:26;2.80;;;1.80;;
20931;SDS011;10625;49.054;9.348;2022-09-12T17:08:54;3.40;;;2.17;;
20931;SDS011;10625;49.054;9.348;2022-09-12T17:11:23;2.23;;;1.90;;
20931;SDS011;10625;49.054;9.348;2022-09-12T17:13:54;2.87;;;2.33;;
20931;SDS011;10625;49.054;9.348;2022-09-12T17:16:21;2.60;;;2.40;;
20931;SDS011;10625;49.054;9.348;2022-09-12T17:18:50;3.97;;;2.27;;
20931;SDS011;10625;49.054;9.348;2022-09-12T17:21:17;3.40;;;2.13;;
20931;SDS011;10625;49.054;9.348;2022-09-12T17:23:45;2.20;;;2.00;;
20931;SDS011;10625;49.054;9.348;2022-09-12T17:26:13;2.60;;;2.40;;
20931;SDS011;10625;49.054;9.348;2022-09-12T17:28:41;4.13;;;2.27;;
20931;SDS011;10625;49.054;9.348;2022-09-12T17:31:10;2.70;;;2.50;;
20931;SDS011;10625;49.054;9.348;2022-09-12T17:33:38;3.30;;;2.50;;
20931;SDS011;10625;49.054;9.348;2022-09-12T17:36:12;2.57;;;2.30;;
20931;SDS011;10625;49.054;9.348;2022-09-12T17:38:38;2.50;;;2.30;;
20931;SDS011;10625;49.054;9.348;2022-09-12T17:41:09;3.07;;;2.40;;
20931;SDS011;10625;49.054;9.348;2022-09-12T17:43:37;2.53;;;2.30;;
20931;SDS011;10625;49.054;9.348;2022-09-12T17:46:05;5.23;;;2.80;;
20931;SDS011;10625;49.054;9.348;2022-09-12T17:48:33;3.87;;;2.60;;
20931;SDS011;10625;49.054;9.348;2022-09-12T17:51:12;3.00;;;2.43;;
20931;SDS011;10625;49.054;9.348;2022-09-12T17:53:36;4.80;;;2.93;;
20931;SDS011;10625;49.054;9.348;2022-09-12T17:56:03;3.00;;;2.47;;
20931;SDS011;10625;49.054;9.348;2022-09-12T17:58:31;2.57;;;2.37;;
20931;SDS011;10625;49.054;9.348;2022-09-12T18:01:11;2.60;;;2.40;;
20931;SDS011;10625;49.054;9.348;2022-09-12T18:03:58;2.63;;;2.40;;
20931;SDS011;10625;49.054;9.348;2022-09-12T18:06:29;3.73;;;2.70;;
20931;SDS011;10625;49.054;9.348;2022-09-12T18:09:04;2.60;;;2.40;;
20931;SDS011;10625;49.054;9.348;2022-09-12T18:11:32;2.60;;;2.40;;
20931;SDS011;10625;49.054;9.348;2022-09-12T18:13:59;2.80;;;2.50;;
20931;SDS011;10625;49.054;9.348;2022-09-12T18:16:26;3.27;;;2.70;;
20931;SDS011;10625;49.054;9.348;2022-09-12T18:18:54;2.67;;;2.33;;
20931;SDS011;10625;49.054;9.348;2022-09-12T18:21:21;2.67;;;2.40;;
20931;SDS011;10625;49.054;9.348;2022-09-12T18:23:48;4.10;;;3.00;;
20931;SDS011;10625;49.054;9.348;2022-09-12T18:26:16;3.00;;;2.70;;
20931;SDS011;10625;49.054;9.348;2022-09-12T18:28:43;2.97;;;2.67;;
20931;SDS011;10625;49.054;9.348;2022-09-12T18:31:14;3.20;;;2.70;;
20931;SDS011;10625;49.054;9.348;2022-09-12T18:33:42;2.97;;;2.53;;
20931;SDS011;10625;49.054;9.348;2022-09-12T18:36:10;5.17;;;3.40;;
20931;SDS011;10625;49.054;9.348;2022-09-12T18:38:38;3.40;;;2.70;;
20931;SDS011;10625;49.054;9.348;2022-09-12T18:41:09;4.23;;;2.80;;
20931;SDS011;10625;49.054;9.348;2022-09-12T18:43:36;4.20;;;2.63;;
20931;SDS011;10625;49.054;9.348;2022-09-12T18:46:10;3.63;;;2.97;;
20931;SDS011;10625;49.054;9.348;2022-09-12T18:48:33;4.47;;;2.77;;
20931;SDS011;10625;49.054;9.348;2022-09-12T18:51:06;4.37;;;2.90;;
20931;SDS011;10625;49.054;9.348;2022-09-12T18:53:35;3.50;;;2.97;;
20931;SDS011;10625;49.054;9.348;2022-09-12T18:56:07;3.20;;;2.80;;
20931;SDS011;10625;49.054;9.348;2022-09-12T18:58:35;3.93;;;3.20;;
20931;SDS011;10625;49.054;9.348;2022-09-12T19:01:15;3.40;;;3.10;;
20931;SDS011;10625;49.054;9.348;2022-09-12T19:03:43;3.43;;;2.90;;
20931;SDS011;10625;49.054;9.348;2022-09-12T19:06:11;4.77;;;3.50;;
20931;SDS011;10625;49.054;9.348;2022-09-12T19:08:39;5.30;;;3.20;;
20931;SDS011;10625;49.054;9.348;2022-09-12T19:11:06;3.30;;;3.00;;
20931;SDS011;10625;49.054;9.348;2022-09-12T19:13:35;3.97;;;3.23;;
20931;SDS011;10625;49.054;9.348;2022-09-12T19:16:03;4.57;;;3.00;;
20931;SDS011;10625;49.054;9.348;2022-09-12T19:18:31;3.93;;;3.20;;
20931;SDS011;10625;49.054;9.348;2022-09-12T19:20:59;3.57;;;3.20;;
20931;SDS011;10625;49.054;9.348;2022-09-12T19:23:27;4.77;;;3.23;;
20931;SDS011;10625;49.054;9.348;2022-09-12T19:25:56;4.17;;;2.90;;
20931;SDS011;10625;49.054;9.348;2022-09-12T19:28:24;4.90;;;3.10;;
20931;SDS011;10625;49.054;9.348;2022-09-12T19:30:51;4.43;;;3.20;;
20931;SDS011;10625;49.054;9.348;2022-09-12T19:33:19;6.03;;;3.10;;
20931;SDS011;10625;49.054;9.348;2022-09-12T19:35:46;4.00;;;3.53;;
20931;SDS011;10625;49.054;9.348;2022-09-12T19:38:14;4.30;;;3.63;;
20931;SDS011;10625;49.054;9.348;2022-09-12T19:40:41;5.03;;;3.40;;
20931;SDS011;10625;49.054;9.348;2022-09-12T19:43:08;5.17;;;3.80;;
20931;SDS011;10625;49.054;9.348;2022-09-12T19:45:36;5.00;;;3.60;;
